Time;durP1;ratioP1;P1;durP2;ratioP2;P2;SDS_P1;SDS_P2;PMS_P1;PMS_P2;Temp;Humidity;BMP_temperature;BMP_pressure;BME280_temperature;BME280_humidity;BME280_pressure;Samples;Min_cycle;Max_cycle;Signal;HPM_P1;HPM_P2
2021/11/07 00:00:38;;;;;;;;;;;24.70;43.60;;;;;;5095425;28;20013;-76
2021/11/07 00:03:16;;;;;;;;;;;24.70;43.60;;;;;;5095528;28;19931;-78
2021/11/07 00:05:53;;;;;;;;;;;24.70;43.50;;;;;;5095267;28;19961;-78
2021/11/07 00:08:36;;;;;;;;;;;24.70;43.60;;;;;;5109988;28;19999;-81
2021/11/07 00:11:08;;;;;;;;;;;24.70;43.60;;;;;;5109810;28;20226;-76
2021/11/07 00:13:36;;;;;;;;;;;24.70;43.60;;;;;;5095352;28;20362;-76
2021/11/07 00:16:09;;;;;;;;;;;24.70;43.60;;;;;;5077707;28;19999;-78
2021/11/07 00:18:44;;;;;;;;;;;24.70;43.60;;;;;;5111121;28;19908;-78
2021/11/07 00:21:23;;;;;;;;;;;24.70;43.50;;;;;;5079149;28;19970;-79
2021/11/07 00:24:36;;;;;;;;;;;24.70;43.50;;;;;;5114564;28;19924;-78
2021/11/07 00:26:51;;;;;;;;;;;24.70;43.50;;;;;;5091208;28;19908;-80
2021/11/07 00:29:24;;;;;;;;;;;24.70;43.60;;;;;;5099630;28;20391;-78
2021/11/07 00:37:04;;;;;;;;;;;24.70;43.60;;;;;;5111376;28;19908;-77
2021/11/07 00:39:40;;;;;;;;;;;24.70;43.60;;;;;;5077376;28;19920;-75
2021/11/07 00:48:39;;;;;;;;;;;24.60;43.60;;;;;;5075230;28;19918;-79
2021/11/07 00:50:54;;;;;;;;;;;24.70;43.70;;;;;;5086932;28;19908;-77
2021/11/07 00:56:01;;;;;;;;;;;24.60;43.60;;;;;;5110897;28;19916;-77
2021/11/07 00:58:38;;;;;;;;;;;24.70;43.70;;;;;;5095150;28;19977;-79
2021/11/07 01:01:08;;;;;;;;;;;24.70;43.60;;;;;;5109631;28;19954;-79
2021/11/07 01:03:36;;;;;;;;;;;24.70;43.60;;;;;;5110355;28;19987;-77
2021/11/07 01:06:04;;;;;;;;;;;24.60;43.60;;;;;;5094790;28;19938;-77
2021/11/07 01:08:32;;;;;;;;;;;24.70;43.60;;;;;;5110838;28;19908;-77
2021/11/07 01:11:00;;;;;;;;;;;24.70;43.60;;;;;;5094658;28;19912;-77
2021/11/07 01:13:26;;;;;;;;;;;24.60;43.60;;;;;;5076720;28;20337;-77
2021/11/07 01:15:51;;;;;;;;;;;24.70;43.60;;;;;;5077184;28;19908;-77
2021/11/07 01:18:19;;;;;;;;;;;24.70;43.60;;;;;;5077315;28;20395;-79
2021/11/07 01:20:45;;;;;;;;;;;24.70;43.60;;;;;;5110766;28;19912;-78
2021/11/07 01:25:51;;;;;;;;;;;24.60;43.50;;;;;;5094625;28;19915;-78
2021/11/07 01:28:18;;;;;;;;;;;24.70;43.60;;;;;;5109564;28;19908;-78
2021/11/07 01:30:49;;;;;;;;;;;24.70;43.60;;;;;;5093348;28;19958;-76
2021/11/07 01:33:20;;;;;;;;;;;24.60;43.60;;;;;;5097173;28;19908;-78
2021/11/07 01:38:35;;;;;;;;;;;24.60;43.60;;;;;;5111588;28;20016;-78
2021/11/07 01:43:27;;;;;;;;;;;24.60;43.60;;;;;;5114299;28;19966;-78
2021/11/07 01:46:02;;;;;;;;;;;24.60;43.60;;;;;;5080082;28;20058;-76
2021/11/07 01:48:30;;;;;;;;;;;24.60;43.60;;;;;;5112599;28;19919;-77
2021/11/07 01:50:57;;;;;;;;;;;24.60;43.60;;;;;;5080158;28;20249;-79
2021/11/07 01:55:49;;;;;;;;;;;24.60;43.60;;;;;;5097624;28;19913;-77
2021/11/07 01:58:17;;;;;;;;;;;24.60;43.60;;;;;;5097950;28;20333;-78
2021/11/07 02:00:45;;;;;;;;;;;24.60;43.60;;;;;;5098092;28;19916;-76
2021/11/07 02:03:11;;;;;;;;;;;24.60;43.60;;;;;;5098027;28;20298;-80
2021/11/07 02:05:39;;;;;;;;;;;24.60;43.60;;;;;;5114142;28;19999;-76
2021/11/07 02:08:07;;;;;;;;;;;24.60;43.60;;;;;;5097758;28;19907;-77
2021/11/07 02:10:38;;;;;;;;;;;24.60;43.60;;;;;;5079722;28;19966;-76
2021/11/07 02:13:06;;;;;;;;;;;24.60;43.60;;;;;;5113496;28;19908;-77
2021/11/07 02:15:31;;;;;;;;;;;24.60;43.60;;;;;;5113007;28;19908;-77
2021/11/07 02:17:59;;;;;;;;;;;24.60;43.60;;;;;;5097249;28;19931;-78
2021/11/07 02:20:29;;;;;;;;;;;24.60;43.60;;;;;;5079447;28;19999;-77
2021/11/07 02:22:57;;;;;;;;;;;24.60;43.60;;;;;;5097324;28;19908;-78
2021/11/07 02:25:25;;;;;;;;;;;24.60;43.60;;;;;;5079488;28;19919;-76
2021/11/07 02:27:51;;;;;;;;;;;24.60;43.60;;;;;;5113108;28;19912;-77
2021/11/07 02:30:19;;;;;;;;;;;24.60;43.60;;;;;;5113602;28;19908;-77
2021/11/07 02:32:44;;;;;;;;;;;24.50;43.50;;;;;;5096213;28;20333;-79
2021/11/07 02:35:11;;;;;;;;;;;24.60;43.60;;;;;;5113272;28;19919;-76
2021/11/07 02:37:39;;;;;;;;;;;24.60;43.60;;;;;;5096800;28;19919;-77
2021/11/07 02:40:08;;;;;;;;;;;24.60;43.60;;;;;;5096425;28;20237;-77
2021/11/07 02:42:36;;;;;;;;;;;24.50;43.50;;;;;;5112604;28;19992;-77
2021/11/07 02:45:04;;;;;;;;;;;24.50;43.60;;;;;;5078077;28;20006;-78
2021/11/07 02:47:30;;;;;;;;;;;24.50;43.60;;;;;;5095651;28;19919;-78
2021/11/07 02:49:55;;;;;;;;;;;24.50;43.60;;;;;;5078852;28;19908;-80
2021/11/07 02:52:21;;;;;;;;;;;24.50;43.60;;;;;;5096096;28;19912;-79
2021/11/07 02:54:47;;;;;;;;;;;24.50;43.60;;;;;;5096689;28;19908;-79
2021/11/07 02:57:13;;;;;;;;;;;24.50;43.60;;;;;;5095444;28;19912;-80
2021/11/07 02:59:41;;;;;;;;;;;24.50;43.60;;;;;;5096477;28;19999;-77
2021/11/07 03:02:09;;;;;;;;;;;24.50;43.60;;;;;;5112313;28;19973;-81
2021/11/07 03:04:35;;;;;;;;;;;24.50;43.60;;;;;;5112459;28;20289;-77
2021/11/07 03:07:00;;;;;;;;;;;24.50;43.60;;;;;;5096301;28;20014;-78
2021/11/07 03:09:27;;;;;;;;;;;24.50;43.60;;;;;;5099251;28;19934;-77
2021/11/07 03:11:54;;;;;;;;;;;24.50;43.60;;;;;;5087095;28;19912;-77
2021/11/07 03:14:22;;;;;;;;;;;24.50;43.60;;;;;;5116995;28;19908;-76
2021/11/07 03:16:48;;;;;;;;;;;24.50;43.60;;;;;;5112232;28;19912;-79
2021/11/07 03:19:14;;;;;;;;;;;24.50;43.60;;;;;;5078094;28;20303;-79
2021/11/07 03:21:42;;;;;;;;;;;24.50;43.60;;;;;;5112386;28;19939;-76
2021/11/07 03:24:13;;;;;;;;;;;24.50;43.50;;;;;;5112081;28;19916;-80
2021/11/07 03:26:39;;;;;;;;;;;24.50;43.60;;;;;;5096063;28;19995;-79
2021/11/07 03:29:08;;;;;;;;;;;24.50;43.50;;;;;;5095872;28;20359;-79
2021/11/07 03:31:45;;;;;;;;;;;24.50;43.60;;;;;;5111561;28;19946;-80
2021/11/07 03:34:23;;;;;;;;;;;24.50;43.50;;;;;;5077979;28;19959;-77
2021/11/07 03:36:51;;;;;;;;;;;24.50;43.50;;;;;;5095629;28;19923;-80
2021/11/07 03:39:16;;;;;;;;;;;24.50;43.50;;;;;;5094575;28;19943;-77
2021/11/07 03:41:42;;;;;;;;;;;24.50;43.50;;;;;;5096338;28;20349;-77
2021/11/07 03:44:08;;;;;;;;;;;24.50;43.60;;;;;;5095432;28;20057;-75
2021/11/07 03:46:37;;;;;;;;;;;24.50;43.60;;;;;;5094548;28;20115;-77
2021/11/07 03:49:04;;;;;;;;;;;24.50;43.50;;;;;;5111328;28;19948;-77
2021/11/07 03:51:30;;;;;;;;;;;24.50;43.50;;;;;;5095359;28;19908;-79
2021/11/07 03:53:58;;;;;;;;;;;24.40;43.50;;;;;;5095486;28;19908;-76
2021/11/07 03:56:24;;;;;;;;;;;24.50;43.50;;;;;;5094215;28;19913;-78
2021/11/07 03:58:50;;;;;;;;;;;24.50;43.50;;;;;;5095273;28;19918;-76
2021/11/07 04:01:16;;;;;;;;;;;24.50;43.50;;;;;;5095476;28;20018;-76
2021/11/07 04:03:41;;;;;;;;;;;24.50;43.50;;;;;;5077389;28;19998;-76
2021/11/07 04:06:07;;;;;;;;;;;24.50;43.50;;;;;;5077601;28;19909;-75
2021/11/07 04:08:32;;;;;;;;;;;24.50;43.50;;;;;;5095135;28;20300;-77
2021/11/07 04:11:00;;;;;;;;;;;24.40;43.50;;;;;;5077599;28;20234;-78
2021/11/07 04:13:28;;;;;;;;;;;24.40;43.50;;;;;;5111240;28;20384;-79
2021/11/07 04:15:54;;;;;;;;;;;24.40;43.50;;;;;;5077534;28;19908;-79
2021/11/07 04:18:19;;;;;;;;;;;24.40;43.50;;;;;;5077492;28;19962;-79
2021/11/07 04:20:45;;;;;;;;;;;24.40;43.40;;;;;;5095408;28;20294;-77
2021/11/07 04:23:10;;;;;;;;;;;24.40;43.40;;;;;;5111541;28;19911;-76
2021/11/07 04:25:36;;;;;;;;;;;24.40;43.40;;;;;;5094947;28;19974;-78
2021/11/07 04:28:04;;;;;;;;;;;24.40;43.40;;;;;;5111264;28;20529;-80
2021/11/07 04:30:32;;;;;;;;;;;24.40;43.40;;;;;;5077213;28;19942;-80
2021/11/07 04:33:00;;;;;;;;;;;24.40;43.50;;;;;;5077554;28;20040;-79
2021/11/07 04:35:28;;;;;;;;;;;24.40;43.40;;;;;;5095029;28;19951;-77
2021/11/07 04:37:56;;;;;;;;;;;24.40;43.40;;;;;;5094784;28;19915;-80
2021/11/07 04:40:24;;;;;;;;;;;24.40;43.40;;;;;;5076931;28;20002;-78
2021/11/07 04:42:50;;;;;;;;;;;24.40;43.40;;;;;;5094877;28;19912;-79
2021/11/07 04:45:16;;;;;;;;;;;24.40;43.40;;;;;;5111050;28;19919;-78
2021/11/07 04:47:42;;;;;;;;;;;24.40;43.40;;;;;;5093773;28;19908;-79
2021/11/07 04:50:11;;;;;;;;;;;24.40;43.40;;;;;;5111203;28;20237;-77
2021/11/07 04:52:36;;;;;;;;;;;24.40;43.40;;;;;;5094835;28;19909;-77
2021/11/07 04:55:04;;;;;;;;;;;24.40;43.40;;;;;;5077213;28;19909;-79
2021/11/07 04:57:30;;;;;;;;;;;24.40;43.40;;;;;;5110624;28;20305;-79
2021/11/07 04:59:58;;;;;;;;;;;24.40;43.40;;;;;;5076917;28;19908;-77
2021/11/07 05:02:26;;;;;;;;;;;24.40;43.40;;;;;;5110328;28;19912;-77
2021/11/07 05:04:55;;;;;;;;;;;24.40;43.40;;;;;;5110531;28;19908;-78
2021/11/07 05:07:21;;;;;;;;;;;24.40;43.40;;;;;;5112093;28;19912;-79
2021/11/07 05:09:47;;;;;;;;;;;24.40;43.40;;;;;;5098572;28;19908;-79
2021/11/07 05:12:13;;;;;;;;;;;24.40;43.40;;;;;;5097537;28;19912;-77
2021/11/07 05:14:41;;;;;;;;;;;24.40;43.40;;;;;;5114432;28;19919;-77
2021/11/07 05:17:07;;;;;;;;;;;24.40;43.40;;;;;;5097555;28;19908;-80
2021/11/07 05:19:36;;;;;;;;;;;24.40;43.40;;;;;;5098360;28;19912;-78
2021/11/07 05:22:02;;;;;;;;;;;24.40;43.30;;;;;;5098344;28;19935;-79
2021/11/07 05:24:28;;;;;;;;;;;24.40;43.30;;;;;;5098251;28;19983;-77
2021/11/07 05:26:56;;;;;;;;;;;24.40;43.30;;;;;;5098383;28;19997;-77
2021/11/07 05:29:24;;;;;;;;;;;24.40;43.40;;;;;;5098285;28;20123;-79
2021/11/07 05:31:50;;;;;;;;;;;24.40;43.30;;;;;;5116567;28;20296;-77
2021/11/07 05:34:18;;;;;;;;;;;24.40;43.30;;;;;;5080217;28;19908;-77
2021/11/07 05:36:45;;;;;;;;;;;24.40;43.30;;;;;;5114069;28;20011;-80
2021/11/07 05:39:13;;;;;;;;;;;24.40;43.30;;;;;;5097740;28;19942;-78
2021/11/07 05:41:39;;;;;;;;;;;24.40;43.30;;;;;;5113770;28;19926;-78
2021/11/07 05:44:04;;;;;;;;;;;24.40;43.30;;;;;;5097863;28;19987;-79
2021/11/07 05:46:30;;;;;;;;;;;24.30;43.20;;;;;;5113956;28;20336;-77
2021/11/07 05:48:58;;;;;;;;;;;24.40;43.30;;;;;;5114178;28;19908;-78
2021/11/07 05:51:26;;;;;;;;;;;24.40;43.30;;;;;;5096569;28;19951;-78
2021/11/07 05:53:54;;;;;;;;;;;24.40;43.30;;;;;;5113613;28;20047;-78
2021/11/07 05:56:19;;;;;;;;;;;24.40;43.30;;;;;;5097506;28;19961;-78
2021/11/07 05:58:45;;;;;;;;;;;24.40;43.30;;;;;;5080184;28;19981;-77
2021/11/07 06:01:13;;;;;;;;;;;24.40;43.30;;;;;;5079412;28;20332;-78
2021/11/07 06:03:41;;;;;;;;;;;24.30;43.20;;;;;;5113886;28;20268;-78
2021/11/07 06:06:08;;;;;;;;;;;24.30;43.30;;;;;;5096521;28;19908;-76
2021/11/07 06:08:36;;;;;;;;;;;24.40;43.30;;;;;;5097155;28;19908;-79
2021/11/07 06:11:04;;;;;;;;;;;24.40;43.30;;;;;;5079591;28;20447;-78
2021/11/07 06:13:30;;;;;;;;;;;24.30;43.20;;;;;;5096076;28;20272;-77
2021/11/07 06:15:57;;;;;;;;;;;24.30;43.20;;;;;;5096443;28;20379;-78
2021/11/07 06:18:23;;;;;;;;;;;24.30;43.20;;;;;;5096008;28;19938;-80
2021/11/07 06:20:49;;;;;;;;;;;24.30;43.80;;;;;;5113106;28;19916;-78
2021/11/07 06:23:15;;;;;;;;;;;24.30;43.20;;;;;;5096027;28;19908;-78
2021/11/07 06:25:43;;;;;;;;;;;24.30;43.20;;;;;;5079441;28;19908;-77
2021/11/07 06:28:08;;;;;;;;;;;24.30;43.20;;;;;;5095749;28;19908;-78
2021/11/07 06:30:34;;;;;;;;;;;24.30;43.20;;;;;;5096025;28;20333;-77
2021/11/07 06:32:59;;;;;;;;;;;24.30;43.20;;;;;;5113203;28;19915;-77
2021/11/07 06:35:25;;;;;;;;;;;24.30;43.20;;;;;;5112879;28;19908;-78
2021/11/07 06:37:51;;;;;;;;;;;24.30;43.20;;;;;;5078972;28;19908;-80
2021/11/07 06:40:16;;;;;;;;;;;24.30;43.20;;;;;;5112625;28;19931;-79
2021/11/07 06:42:44;;;;;;;;;;;24.30;43.20;;;;;;5095819;28;20285;-77
2021/11/07 06:45:12;;;;;;;;;;;24.30;43.70;;;;;;5095474;28;19919;-79
2021/11/07 06:47:41;;;;;;;;;;;24.30;43.20;;;;;;5079259;28;19908;-78
2021/11/07 06:50:07;;;;;;;;;;;24.30;43.20;;;;;;5112549;28;20238;-77
2021/11/07 06:52:32;;;;;;;;;;;24.30;43.20;;;;;;5078734;28;20388;-76
2021/11/07 06:54:59;;;;;;;;;;;24.30;43.20;;;;;;5096852;28;19918;-79
2021/11/07 06:57:24;;;;;;;;;;;24.30;43.20;;;;;;5078854;28;19987;-80
2021/11/07 06:59:54;;;;;;;;;;;24.30;43.20;;;;;;5096318;28;19958;-79
2021/11/07 07:02:20;;;;;;;;;;;24.30;43.20;;;;;;5111948;28;20404;-76
2021/11/07 07:04:48;;;;;;;;;;;24.30;43.20;;;;;;5078578;28;19908;-78
2021/11/07 07:07:15;;;;;;;;;;;24.30;43.20;;;;;;5094940;28;19974;-78
2021/11/07 07:09:50;;;;;;;;;;;24.30;43.20;;;;;;5112359;28;19909;-78
2021/11/07 07:17:31;;;;;;;;;;;24.30;43.20;;;;;;5096268;28;19908;-78
2021/11/07 07:20:15;;;;;;;;;;;24.30;43.20;;;;;;5095952;28;19958;-80
2021/11/07 07:26:08;;;;;;;;;;;24.30;43.20;;;;;;5109780;28;19958;-78
2021/11/07 07:28:31;;;;;;;;;;;24.30;43.20;;;;;;5092734;28;19908;-77
2021/11/07 07:36:21;;;;;;;;;;;24.20;43.20;;;;;;5109530;28;19919;-77
2021/11/07 07:38:49;;;;;;;;;;;24.20;43.20;;;;;;5095547;28;19920;-80
2021/11/07 07:41:15;;;;;;;;;;;24.30;43.20;;;;;;5094571;28;20329;-76
2021/11/07 07:43:43;;;;;;;;;;;24.20;43.20;;;;;;5094679;28;19998;-81
2021/11/07 07:46:11;;;;;;;;;;;24.30;43.20;;;;;;5095550;28;19988;-76
2021/11/07 07:48:44;;;;;;;;;;;24.20;43.10;;;;;;5095547;28;19908;-77
2021/11/07 07:51:10;;;;;;;;;;;24.30;43.20;;;;;;5110887;28;19909;-77
2021/11/07 07:53:36;;;;;;;;;;;24.20;43.10;;;;;;5077692;28;20253;-77
2021/11/07 07:56:01;;;;;;;;;;;24.20;43.10;;;;;;5079589;28;19974;-76
2021/11/07 07:58:27;;;;;;;;;;;24.20;43.10;;;;;;5095860;28;20194;-78
2021/11/07 08:00:55;;;;;;;;;;;24.20;43.10;;;;;;5095360;28;19916;-79
2021/11/07 08:03:21;;;;;;;;;;;24.20;43.10;;;;;;5094944;28;19908;-78
2021/11/07 08:05:46;;;;;;;;;;;24.20;43.20;;;;;;5111463;28;19908;-80
2021/11/07 08:08:12;;;;;;;;;;;24.20;43.40;;;;;;5111614;28;20253;-77
2021/11/07 08:10:40;;;;;;;;;;;24.20;44.80;;;;;;5077694;28;19908;-77
2021/11/07 08:13:06;;;;;;;;;;;24.30;47.80;;;;;;5077688;28;19970;-79
2021/11/07 08:15:31;;;;;;;;;;;24.30;49.40;;;;;;5111406;28;19908;-78
2021/11/07 08:17:57;;;;;;;;;;;24.30;49.40;;;;;;5077762;28;19918;-78
2021/11/07 08:20:23;;;;;;;;;;;23.90;37.50;;;;;;5094317;28;19912;-76
2021/11/07 08:22:49;;;;;;;;;;;23.40;35.00;;;;;;5095317;28;19912;-79
2021/11/07 08:25:20;;;;;;;;;;;23.20;31.90;;;;;;5111183;28;19919;-79
2021/11/07 08:27:46;;;;;;;;;;;23.40;39.60;;;;;;5110543;28;19908;-78
2021/11/07 08:30:15;;;;;;;;;;;23.70;41.20;;;;;;5094224;28;19958;-77
2021/11/07 08:32:43;;;;;;;;;;;23.90;41.00;;;;;;5111288;28;19918;-77
2021/11/07 08:35:09;;;;;;;;;;;24.10;41.20;;;;;;5095391;28;19915;-78
2021/11/07 08:37:39;;;;;;;;;;;24.30;41.00;;;;;;5094371;28;19919;-77
2021/11/07 08:40:08;;;;;;;;;;;24.40;40.90;;;;;;5094874;28;20022;-79
2021/11/07 09:01:36;;;;;;;;;;;24.90;40.50;;;;;;5098815;28;19982;-78
2021/11/07 09:09:26;;;;;;;;;;;25.10;40.60;;;;;;5076711;28;19947;-77
2021/11/07 09:11:54;;;;;;;;;;;25.10;40.50;;;;;;5097618;28;20002;-78
2021/11/07 09:14:21;;;;;;;;;;;25.10;40.50;;;;;;5114746;28;20009;-81
2021/11/07 09:16:49;;;;;;;;;;;25.10;40.70;;;;;;5114584;28;20058;-81
2021/11/07 09:19:19;;;;;;;;;;;25.10;40.70;;;;;;5097355;28;19915;-79
2021/11/07 09:21:51;;;;;;;;;;;25.10;40.70;;;;;;5096900;28;20289;-79
2021/11/07 09:27:18;;;;;;;;;;;25.20;40.70;;;;;;5094354;28;19916;-76
2021/11/07 09:32:42;;;;;;;;;;;25.20;40.60;;;;;;5112790;28;19915;-81
2021/11/07 09:35:20;;;;;;;;;;;25.30;40.60;;;;;;5111750;28;19908;-79
2021/11/07 09:38:23;;;;;;;;;;;25.30;40.60;;;;;;5112766;28;20261;-78
2021/11/07 09:40:43;;;;;;;;;;;25.30;40.60;;;;;;5107473;28;20050;-77
2021/11/07 09:50:32;;;;;;;;;;;25.20;40.70;;;;;;5113705;28;19908;-78
2021/11/07 09:52:58;;;;;;;;;;;25.10;40.80;;;;;;5097421;28;19915;-78
2021/11/07 09:55:25;;;;;;;;;;;25.20;40.90;;;;;;5097829;28;19994;-81
2021/11/07 09:57:55;;;;;;;;;;;25.10;41.00;;;;;;5079722;28;20303;-81
2021/11/07 10:00:21;;;;;;;;;;;25.10;41.10;;;;;;5113205;28;19908;-78
2021/11/07 10:02:48;;;;;;;;;;;25.10;41.10;;;;;;5113737;28;19916;-77
2021/11/07 10:05:17;;;;;;;;;;;25.00;41.00;;;;;;5113710;28;20317;-80
2021/11/07 10:07:45;;;;;;;;;;;25.00;41.10;;;;;;5096345;28;20325;-80
2021/11/07 10:10:20;;;;;;;;;;;25.00;41.20;;;;;;5113481;28;20328;-78
2021/11/07 10:12:51;;;;;;;;;;;25.00;41.20;;;;;;5113455;28;20373;-83
2021/11/07 10:15:18;;;;;;;;;;;25.00;41.20;;;;;;5112819;28;19908;-79
2021/11/07 10:20:20;;;;;;;;;;;25.00;41.20;;;;;;5113267;28;20363;-78
2021/11/07 10:22:51;;;;;;;;;;;25.00;41.20;;;;;;5112617;28;19923;-80
2021/11/07 10:25:23;;;;;;;;;;;25.00;41.90;;;;;;5113120;28;19918;-79
2021/11/07 10:27:55;;;;;;;;;;;25.00;41.30;;;;;;5097262;28;19923;-79
2021/11/07 10:30:30;;;;;;;;;;;25.00;41.20;;;;;;5112999;28;20371;-79
2021/11/07 10:33:19;;;;;;;;;;;25.00;41.20;;;;;;5079320;28;19908;-81
2021/11/07 10:41:38;;;;;;;;;;;25.10;41.20;;;;;;5096941;28;19923;-80
2021/11/07 10:52:47;;;;;;;;;;;25.00;41.20;;;;;;5110234;28;19985;-80
2021/11/07 10:55:23;;;;;;;;;;;25.00;41.30;;;;;;5095548;28;19912;-78
2021/11/07 10:57:55;;;;;;;;;;;25.00;41.30;;;;;;5096751;28;19920;-79
2021/11/07 11:00:25;;;;;;;;;;;25.00;41.20;;;;;;5112608;28;20006;-79
2021/11/07 11:02:57;;;;;;;;;;;25.10;41.20;;;;;;5095654;28;19908;-77
2021/11/07 11:05:25;;;;;;;;;;;25.00;41.20;;;;;;5111667;28;19912;-78
2021/11/07 11:08:04;;;;;;;;;;;25.10;41.20;;;;;;5112388;28;19956;-80
2021/11/07 11:13:36;;;;;;;;;;;25.10;41.20;;;;;;5111927;28;19934;-80
2021/11/07 11:32:18;;;;;;;;;;;25.00;41.80;;;;;;5112389;28;19915;-79
2021/11/07 11:35:29;;;;;;;;;;;25.00;41.20;;;;;;5092897;28;19918;-83
2021/11/07 11:42:41;;;;;;;;;;;25.00;41.30;;;;;;5111595;28;19926;-79
2021/11/07 11:45:07;;;;;;;;;;;24.90;41.30;;;;;;5111065;28;19995;-81
2021/11/07 11:48:02;;;;;;;;;;;24.90;41.30;;;;;;5094645;28;19950;-78
2021/11/07 11:53:09;;;;;;;;;;;24.90;41.40;;;;;;5111773;28;19926;-81
2021/11/07 11:55:41;;;;;;;;;;;24.90;41.50;;;;;;5095477;28;20001;-78
2021/11/07 12:00:38;;;;;;;;;;;24.90;41.50;;;;;;5111550;28;19908;-78
2021/11/07 12:03:23;;;;;;;;;;;24.90;41.50;;;;;;5111846;28;20336;-80
2021/11/07 12:05:53;;;;;;;;;;;24.80;41.50;;;;;;5109151;28;19951;-78
2021/11/07 12:11:33;;;;;;;;;;;24.80;41.50;;;;;;5111368;28;19951;-78
2021/11/07 12:14:06;;;;;;;;;;;24.80;41.40;;;;;;5111410;28;19983;-78
2021/11/07 12:16:53;;;;;;;;;;;24.80;41.40;;;;;;5110280;28;20325;-81
2021/11/07 12:19:21;;;;;;;;;;;24.80;41.50;;;;;;5111024;28;19910;-79
2021/11/07 12:21:57;;;;;;;;;;;24.80;41.50;;;;;;5094992;28;19912;-79
2021/11/07 12:24:28;;;;;;;;;;;24.80;41.50;;;;;;5111111;28;19977;-82
2021/11/07 12:27:17;;;;;;;;;;;24.80;41.50;;;;;;5111297;28;19908;-78
2021/11/07 12:29:48;;;;;;;;;;;24.80;41.50;;;;;;5071640;28;20384;-80
2021/11/07 12:32:14;;;;;;;;;;;24.80;41.50;;;;;;5093672;28;19999;-81
2021/11/07 12:35:07;;;;;;;;;;;24.80;41.50;;;;;;5077427;28;19948;-79
2021/11/07 12:40:40;;;;;;;;;;;24.70;41.60;;;;;;5108610;28;19931;-79
2021/11/07 12:43:14;;;;;;;;;;;24.80;41.70;;;;;;5093989;28;19950;-80
2021/11/07 12:45:46;;;;;;;;;;;24.70;41.70;;;;;;5094723;28;20321;-78
2021/11/07 12:48:16;;;;;;;;;;;24.70;41.70;;;;;;5092910;28;19908;-79
2021/11/07 12:50:58;;;;;;;;;;;24.70;41.70;;;;;;5094887;28;19956;-79
2021/11/07 12:53:25;;;;;;;;;;;24.70;41.70;;;;;;5110943;28;19919;-80
2021/11/07 12:55:51;;;;;;;;;;;24.80;41.80;;;;;;5077189;28;20380;-78
2021/11/07 12:58:17;;;;;;;;;;;24.70;41.70;;;;;;5111535;28;19930;-77
2021/11/07 13:00:42;;;;;;;;;;;24.70;41.70;;;;;;5111183;28;19916;-80
2021/11/07 13:03:09;;;;;;;;;;;24.80;41.80;;;;;;5077173;28;19908;-80
2021/11/07 13:05:41;;;;;;;;;;;24.70;41.70;;;;;;5093725;28;19908;-80
2021/11/07 13:08:33;;;;;;;;;;;24.70;41.70;;;;;;5094662;28;19919;-81
2021/11/07 13:13:40;;;;;;;;;;;24.70;41.70;;;;;;5094986;28;19908;-80
2021/11/07 13:19:41;;;;;;;;;;;24.80;41.80;;;;;;5108336;28;20252;-78
2021/11/07 13:27:03;;;;;;;;;;;24.70;41.80;;;;;;5110178;28;19981;-80
2021/11/07 13:34:31;;;;;;;;;;;24.80;41.80;;;;;;5098496;28;19943;-80
2021/11/07 13:37:02;;;;;;;;;;;24.80;41.80;;;;;;5097257;28;19908;-79
2021/11/07 13:39:34;;;;;;;;;;;24.80;41.80;;;;;;5113767;28;19931;-79
2021/11/07 13:42:07;;;;;;;;;;;24.80;41.70;;;;;;5096689;28;19912;-80
2021/11/07 13:44:41;;;;;;;;;;;24.80;41.70;;;;;;5113151;28;19915;-77
2021/11/07 13:47:09;;;;;;;;;;;24.80;41.70;;;;;;5080171;28;20011;-78
2021/11/07 13:49:47;;;;;;;;;;;24.80;41.70;;;;;;5079894;28;19920;-80
2021/11/07 13:52:12;;;;;;;;;;;24.80;41.70;;;;;;5097986;28;19908;-80
2021/11/07 13:54:38;;;;;;;;;;;24.80;41.70;;;;;;5097022;28;19935;-79
2021/11/07 13:57:04;;;;;;;;;;;24.80;41.70;;;;;;5079852;28;20264;-81
2021/11/07 13:59:39;;;;;;;;;;;24.80;41.70;;;;;;5097835;28;20364;-79
2021/11/07 14:02:10;;;;;;;;;;;24.80;41.70;;;;;;5097647;28;20252;-78
2021/11/07 14:04:40;;;;;;;;;;;24.80;41.70;;;;;;5114207;28;20006;-80
2021/11/07 14:07:14;;;;;;;;;;;24.70;41.70;;;;;;5079929;28;20007;-79
2021/11/07 14:09:55;;;;;;;;;;;24.70;41.70;;;;;;5113922;28;19908;-78
2021/11/07 14:12:33;;;;;;;;;;;24.80;41.80;;;;;;5113639;28;20280;-81
2021/11/07 14:15:03;;;;;;;;;;;24.80;41.80;;;;;;5097667;28;19999;-80
2021/11/07 14:17:28;;;;;;;;;;;24.80;41.80;;;;;;5096410;28;19915;-78
2021/11/07 14:19:54;;;;;;;;;;;24.70;41.70;;;;;;5097526;28;19908;-79
2021/11/07 14:22:25;;;;;;;;;;;24.70;41.60;;;;;;5096397;28;19912;-79
2021/11/07 14:24:51;;;;;;;;;;;24.80;41.70;;;;;;5113114;28;19915;-79
2021/11/07 14:27:22;;;;;;;;;;;24.80;41.70;;;;;;5097098;28;19908;-80
2021/11/07 14:29:58;;;;;;;;;;;24.80;41.60;;;;;;5113427;28;19919;-79
2021/11/07 14:40:03;;;;;;;;;;;24.80;41.60;;;;;;5096270;28;19920;-78
2021/11/07 14:43:14;;;;;;;;;;;24.80;41.60;;;;;;5113127;28;19948;-79
2021/11/07 14:48:31;;;;;;;;;;;24.80;41.60;;;;;;5097158;28;19919;-81
2021/11/07 14:54:15;;;;;;;;;;;24.80;41.60;;;;;;5063846;28;19966;-82
2021/11/07 15:04:37;;;;;;;;;;;24.80;41.60;;;;;;5113606;28;19907;-78
2021/11/07 15:07:07;;;;;;;;;;;24.80;41.50;;;;;;5096583;28;19977;-78
2021/11/07 15:10:07;;;;;;;;;;;24.90;41.60;;;;;;5094929;28;19915;-79
2021/11/07 15:15:25;;;;;;;;;;;24.90;41.60;;;;;;5112658;28;19916;-80
2021/11/07 15:18:04;;;;;;;;;;;24.90;41.50;;;;;;5096871;28;19908;-80
2021/11/07 15:23:04;;;;;;;;;;;24.80;41.60;;;;;;5111358;28;19939;-79
2021/11/07 15:25:35;;;;;;;;;;;24.90;41.50;;;;;;5095079;28;19935;-79
2021/11/07 15:28:08;;;;;;;;;;;24.90;41.50;;;;;;5112121;28;19908;-80
2021/11/07 15:30:37;;;;;;;;;;;24.90;41.50;;;;;;5111732;28;19912;-82
2021/11/07 15:33:07;;;;;;;;;;;24.90;41.50;;;;;;5095081;28;19908;-81
2021/11/07 15:35:33;;;;;;;;;;;24.90;41.50;;;;;;5112213;28;19908;-79
2021/11/07 15:38:10;;;;;;;;;;;24.90;41.50;;;;;;5095406;28;20053;-78
2021/11/07 15:40:39;;;;;;;;;;;24.90;41.50;;;;;;5094655;28;19921;-78
2021/11/07 15:43:11;;;;;;;;;;;24.90;41.50;;;;;;5111677;28;19911;-79
2021/11/07 15:45:51;;;;;;;;;;;24.90;41.50;;;;;;5112054;28;19908;-80
2021/11/07 15:48:20;;;;;;;;;;;24.90;41.50;;;;;;5109838;28;19908;-78
2021/11/07 15:50:57;;;;;;;;;;;24.90;41.50;;;;;;5111133;28;20491;-80
2021/11/07 15:53:31;;;;;;;;;;;24.90;41.50;;;;;;5095591;28;19916;-81
2021/11/07 15:59:03;;;;;;;;;;;24.90;41.50;;;;;;5073517;28;19908;-79
2021/11/07 16:01:54;;;;;;;;;;;24.90;41.50;;;;;;5091769;28;19916;-78
2021/11/07 16:04:45;;;;;;;;;;;24.90;41.50;;;;;;5108797;28;19908;-81
2021/11/07 16:17:51;;;;;;;;;;;24.80;41.50;;;;;;5089709;28;19950;-79
2021/11/07 16:20:19;;;;;;;;;;;24.80;41.40;;;;;;5110901;28;19946;-78
2021/11/07 16:22:50;;;;;;;;;;;24.90;41.40;;;;;;5093724;28;20307;-78
2021/11/07 16:25:22;;;;;;;;;;;24.90;41.50;;;;;;5110271;28;19918;-77
2021/11/07 16:27:49;;;;;;;;;;;24.90;41.50;;;;;;5095488;28;20360;-78
2021/11/07 16:30:16;;;;;;;;;;;24.80;41.40;;;;;;5095576;28;20324;-78
2021/11/07 16:32:50;;;;;;;;;;;24.90;41.50;;;;;;5093975;28;20374;-78
2021/11/07 16:35:24;;;;;;;;;;;24.80;41.40;;;;;;5095110;28;19908;-78
2021/11/07 16:38:19;;;;;;;;;;;24.90;41.40;;;;;;5077604;28;19918;-78
2021/11/07 16:40:47;;;;;;;;;;;24.80;41.40;;;;;;5087451;28;19920;-80
2021/11/07 16:43:15;;;;;;;;;;;24.90;41.50;;;;;;5075152;28;19909;-81
2021/11/07 16:45:43;;;;;;;;;;;24.90;41.60;;;;;;5057531;28;19908;-81
2021/11/07 16:48:13;;;;;;;;;;;24.80;41.80;;;;;;5057576;28;20003;-80
2021/11/07 16:50:49;;;;;;;;;;;24.90;41.90;;;;;;5041148;28;19908;-81
2021/11/07 16:53:22;;;;;;;;;;;24.90;41.70;;;;;;5074620;28;19944;-80
2021/11/07 16:55:52;;;;;;;;;;;24.90;41.70;;;;;;5041477;28;19908;-81
2021/11/07 16:58:26;;;;;;;;;;;24.90;41.60;;;;;;5044356;28;20284;-78
2021/11/07 17:00:54;;;;;;;;;;;24.90;41.60;;;;;;5062720;28;19909;-80
2021/11/07 17:03:27;;;;;;;;;;;24.90;41.60;;;;;;5063914;28;19909;-79
2021/11/07 17:06:06;;;;;;;;;;;24.90;41.60;;;;;;5066245;28;19908;-81
2021/11/07 17:08:43;;;;;;;;;;;24.90;41.70;;;;;;5050280;28;20341;-81
2021/11/07 17:11:12;;;;;;;;;;;24.90;41.70;;;;;;5047340;28;20011;-82
2021/11/07 17:13:38;;;;;;;;;;;24.90;41.70;;;;;;5061866;28;19958;-79
2021/11/07 17:16:15;;;;;;;;;;;24.90;41.70;;;;;;5044305;28;19967;-80
2021/11/07 17:18:44;;;;;;;;;;;24.90;41.70;;;;;;5082000;28;19909;-82
2021/11/07 17:21:33;;;;;;;;;;;24.90;41.70;;;;;;5044384;28;20371;-84
2021/11/07 17:26:29;;;;;;;;;;;24.90;41.70;;;;;;5060792;28;20341;-81
2021/11/07 17:29:01;;;;;;;;;;;24.90;41.70;;;;;;5061474;28;19950;-86
2021/11/07 17:31:41;;;;;;;;;;;24.90;41.70;;;;;;5045101;28;19982;-81
2021/11/07 17:34:32;;;;;;;;;;;24.90;41.80;;;;;;5062784;28;19915;-80
2021/11/07 17:37:13;;;;;;;;;;;24.90;41.80;;;;;;5064611;28;19915;-79
2021/11/07 17:40:17;;;;;;;;;;;24.90;41.80;;;;;;5073494;28;19958;-82